Time;durP1;ratioP1;P1;durP2;ratioP2;P2;SDS_P1;SDS_P2;PMS_P1;PMS_P2;Temp;Humidity;BMP_temperature;BMP_pressure;BME280_temperature;BME280_humidity;BME280_pressure;Samples;Min_cycle;Max_cycle;Signal;HPM_P1;HPM_P2
2021/07/19 00:01:25;;;;;;;3.92;3.30;;;17.50;99.90;;;;;;5026946;28;20631;-80
2021/07/19 00:03:53;;;;;;;4.03;3.53;;;17.40;99.90;;;;;;5026856;28;20198;-80
2021/07/19 00:06:20;;;;;;;4.10;3.33;;;17.40;99.90;;;;;;5026275;28;20203;-81
2021/07/19 00:08:47;;;;;;;5.57;3.47;;;17.40;99.90;;;;;;5026853;28;20688;-81
2021/07/19 00:11:14;;;;;;;3.40;2.90;;;17.40;99.90;;;;;;5027015;28;20218;-81
2021/07/19 00:13:41;;;;;;;5.35;3.30;;;17.40;99.90;;;;;;5026387;28;20190;-81
2021/07/19 00:16:08;;;;;;;7.63;4.13;;;17.30;99.90;;;;;;5027064;28;20203;-82
2021/07/19 00:18:35;;;;;;;5.30;3.95;;;17.30;99.90;;;;;;5025927;28;20195;-81
2021/07/19 00:21:05;;;;;;;5.38;3.63;;;17.20;99.90;;;;;;5027225;28;20527;-81
2021/07/19 00:23:32;;;;;;;5.32;3.92;;;17.10;99.90;;;;;;5046518;28;20214;-81
2021/07/19 00:25:59;;;;;;;4.20;3.60;;;17.00;99.90;;;;;;5046303;28;20558;-81
2021/07/19 00:28:26;;;;;;;5.45;3.70;;;17.00;99.90;;;;;;5047630;28;20198;-81
2021/07/19 00:30:53;;;;;;;4.30;3.90;;;17.00;99.90;;;;;;5042690;28;20217;-81
2021/07/19 00:33:20;;;;;;;3.63;3.33;;;16.90;99.90;;;;;;5057895;28;20206;-81
2021/07/19 00:35:46;;;;;;;4.18;3.42;;;16.90;99.90;;;;;;5040027;28;20205;-80
2021/07/19 00:38:15;;;;;;;4.60;3.42;;;16.80;99.90;;;;;;5028134;28;20230;-81
2021/07/19 00:40:41;;;;;;;4.40;3.70;;;16.80;99.90;;;;;;5024566;28;20249;-82
2021/07/19 00:43:09;;;;;;;6.25;4.10;;;16.80;99.90;;;;;;5027404;28;20198;-81
2021/07/19 00:45:37;;;;;;;5.43;3.85;;;16.70;99.90;;;;;;5026438;28;20929;-81
2021/07/19 00:48:06;;;;;;;4.55;3.65;;;16.70;99.90;;;;;;5026707;28;20511;-80
2021/07/19 00:50:39;;;;;;;5.53;4.13;;;16.70;99.90;;;;;;5026175;28;20226;-81
2021/07/19 00:53:08;;;;;;;4.30;3.50;;;16.70;99.90;;;;;;5026905;28;20214;-82
2021/07/19 00:55:38;;;;;;;5.47;4.20;;;16.70;99.90;;;;;;5045495;28;20205;-82
2021/07/19 00:58:06;;;;;;;6.15;4.57;;;16.60;99.90;;;;;;5038673;28;20221;-80
2021/07/19 01:00:38;;;;;;;5.85;3.95;;;16.60;99.90;;;;;;5044814;28;20621;-81
2021/07/19 01:03:07;;;;;;;6.10;3.83;;;16.60;99.90;;;;;;5037958;28;20217;-81
2021/07/19 01:05:37;;;;;;;5.18;3.78;;;16.60;99.90;;;;;;5026238;28;20478;-83
2021/07/19 01:08:05;;;;;;;5.18;4.00;;;16.60;99.90;;;;;;5026041;28;20850;-81
2021/07/19 01:10:34;;;;;;;6.30;4.43;;;16.50;99.90;;;;;;5025584;28;20623;-82
2021/07/19 01:13:03;;;;;;;6.73;4.53;;;16.50;99.90;;;;;;5026418;28;20207;-81
2021/07/19 01:15:32;;;;;;;3.90;3.40;;;16.50;99.90;;;;;;5030174;28;20206;-81
2021/07/19 01:17:59;;;;;;;4.47;3.83;;;16.40;99.90;;;;;;5045755;28;20604;-81
2021/07/19 01:20:30;;;;;;;4.60;3.50;;;16.40;99.90;;;;;;5046690;28;20201;-82
2021/07/19 01:23:32;;;;;;;5.07;3.42;;;16.40;99.90;;;;;;5034969;28;20615;-81
2021/07/19 01:26:10;;;;;;;6.27;3.77;;;16.40;99.90;;;;;;5026386;28;20198;-80
2021/07/19 01:28:42;;;;;;;6.27;4.13;;;16.30;99.90;;;;;;5026053;28;20282;-81
2021/07/19 01:31:13;;;;;;;4.50;3.88;;;16.30;99.90;;;;;;5026868;28;20202;-81
2021/07/19 01:33:44;;;;;;;4.00;3.60;;;16.30;99.90;;;;;;5026089;28;20217;-81
2021/07/19 01:36:13;;;;;;;4.97;3.93;;;16.30;99.90;;;;;;5026109;28;20195;-82
2021/07/19 01:38:40;;;;;;;8.65;4.78;;;16.20;99.90;;;;;;5025775;28;20231;-81
2021/07/19 01:41:08;;;;;;;6.63;4.17;;;16.20;99.90;;;;;;5026766;28;20233;-82
2021/07/19 01:43:35;;;;;;;5.87;3.87;;;16.20;99.90;;;;;;5025577;28;20202;-82
2021/07/19 01:46:05;;;;;;;6.07;4.37;;;16.10;99.90;;;;;;5026416;28;20195;-81
2021/07/19 01:48:33;;;;;;;4.93;4.33;;;16.10;99.90;;;;;;5025765;28;20209;-84
2021/07/19 01:51:01;;;;;;;5.50;4.27;;;16.10;99.90;;;;;;5025531;28;20230;-83
2021/07/19 01:53:30;;;;;;;5.87;4.70;;;16.00;99.90;;;;;;5026315;28;20207;-82
2021/07/19 01:55:58;;;;;;;7.20;5.03;;;15.90;99.90;;;;;;5026333;28;20268;-82
2021/07/19 01:58:25;;;;;;;5.87;4.67;;;15.90;99.90;;;;;;5025089;28;20226;-82
2021/07/19 02:00:52;;;;;;;5.33;4.83;;;15.90;99.90;;;;;;5025797;28;20199;-81
2021/07/19 02:03:21;;;;;;;4.93;3.90;;;15.90;99.90;;;;;;5026329;28;20213;-82
2021/07/19 02:05:50;;;;;;;6.30;5.00;;;15.80;99.90;;;;;;5025323;28;20214;-81
2021/07/19 02:08:18;;;;;;;4.20;3.70;;;15.80;99.90;;;;;;5025640;28;20216;-82
2021/07/19 02:10:48;;;;;;;4.43;3.90;;;15.80;99.90;;;;;;5025288;28;20202;-83
2021/07/19 02:13:16;;;;;;;4.63;4.00;;;15.80;99.90;;;;;;5027623;28;20511;-81
2021/07/19 02:15:44;;;;;;;6.32;4.78;;;15.70;99.90;;;;;;5028876;28;20203;-82
2021/07/19 02:18:13;;;;;;;5.33;4.50;;;15.70;99.90;;;;;;5029273;28;20230;-82
2021/07/19 02:20:44;;;;;;;4.93;3.63;;;15.70;99.90;;;;;;5029167;28;20210;-82
2021/07/19 02:23:11;;;;;;;8.30;5.00;;;15.70;99.90;;;;;;5029792;28;20592;-81
2021/07/19 02:25:40;;;;;;;5.13;4.57;;;15.70;99.90;;;;;;5027795;28;20203;-82
2021/07/19 02:28:10;;;;;;;5.27;4.63;;;15.60;99.90;;;;;;5028709;28;20206;-82
2021/07/19 02:30:37;;;;;;;4.97;4.40;;;15.60;99.90;;;;;;5028451;28;20214;-82
2021/07/19 02:33:04;;;;;;;5.27;4.20;;;15.60;99.90;;;;;;5028182;28;20206;-81
2021/07/19 02:35:32;;;;;;;5.00;4.50;;;15.60;99.90;;;;;;5028113;28;20199;-83
2021/07/19 02:38:03;;;;;;;5.10;4.20;;;15.50;99.90;;;;;;5028490;28;20246;-82
2021/07/19 02:40:31;;;;;;;6.13;4.83;;;15.50;99.90;;;;;;5027045;28;20226;-82
2021/07/19 02:42:59;;;;;;;4.50;3.93;;;15.50;99.90;;;;;;5028009;28;20210;-82
2021/07/19 02:45:29;;;;;;;6.60;5.03;;;15.50;99.90;;;;;;5028312;28;20222;-81
2021/07/19 02:47:59;;;;;;;7.57;4.87;;;15.50;99.90;;;;;;5027580;28;20187;-82
2021/07/19 02:50:29;;;;;;;5.70;4.47;;;15.50;99.90;;;;;;5040941;28;20238;-82
2021/07/19 02:53:00;;;;;;;4.90;4.40;;;15.50;99.90;;;;;;5049109;28;20757;-82
2021/07/19 02:55:29;;;;;;;6.87;4.33;;;15.50;99.90;;;;;;5041561;28;20475;-82
2021/07/19 02:57:56;;;;;;;6.57;4.20;;;15.40;99.90;;;;;;5028355;28;20222;-83
2021/07/19 03:00:23;;;;;;;4.40;4.00;;;15.40;99.90;;;;;;5027626;28;20203;-81
2021/07/19 03:02:53;;;;;;;5.63;4.00;;;15.40;99.90;;;;;;5041315;28;20212;-82
2021/07/19 03:05:25;;;;;;;5.77;4.30;;;15.40;99.90;;;;;;5048066;28;20213;-82
2021/07/19 03:07:55;;;;;;;5.13;4.50;;;15.40;99.90;;;;;;5049071;28;20202;-82
2021/07/19 03:10:26;;;;;;;5.63;4.60;;;15.40;99.90;;;;;;5049724;28;20229;-82
2021/07/19 03:12:58;;;;;;;4.57;3.60;;;15.40;99.90;;;;;;5049588;28;20202;-83
2021/07/19 03:15:27;;;;;;;5.20;3.80;;;15.40;99.90;;;;;;5029640;28;20214;-82
2021/07/19 03:17:56;;;;;;;5.13;4.20;;;15.40;99.90;;;;;;5029221;28;20237;-82
2021/07/19 03:20:23;;;;;;;5.70;4.53;;;15.30;99.90;;;;;;5029079;28;20203;-82
2021/07/19 03:22:52;;;;;;;4.87;4.37;;;15.30;99.90;;;;;;5028331;28;20518;-82
2021/07/19 03:25:23;;;;;;;4.70;3.97;;;15.30;99.90;;;;;;5028673;28;20595;-82
2021/07/19 03:27:52;;;;;;;5.63;4.10;;;15.30;99.90;;;;;;5029466;28;20592;-81
2021/07/19 03:30:20;;;;;;;3.93;3.63;;;15.30;99.90;;;;;;5029208;28;20858;-81
2021/07/19 03:32:50;;;;;;;4.25;3.53;;;15.30;99.90;;;;;;5028702;28;20211;-82
2021/07/19 03:35:19;;;;;;;4.80;3.70;;;15.30;99.90;;;;;;5046445;28;20202;-82
2021/07/19 03:37:47;;;;;;;5.63;4.47;;;15.30;99.90;;;;;;5047113;28;20229;-82
2021/07/19 03:40:18;;;;;;;5.97;4.30;;;15.30;99.90;;;;;;5048362;28;20198;-81
2021/07/19 03:42:45;;;;;;;6.30;4.27;;;15.30;99.90;;;;;;5046514;28;20220;-82
2021/07/19 03:45:16;;;;;;;5.13;4.00;;;15.30;99.90;;;;;;5049154;28;20202;-82
2021/07/19 03:47:45;;;;;;;6.07;3.70;;;15.30;99.90;;;;;;5045695;28;20202;-82
2021/07/19 03:50:12;;;;;;;5.83;4.10;;;15.30;99.90;;;;;;5028744;28;20246;-82
2021/07/19 03:52:40;;;;;;;4.67;3.80;;;15.30;99.90;;;;;;5027620;28;20241;-82
2021/07/19 03:55:09;;;;;;;3.90;3.60;;;15.30;99.90;;;;;;5027970;28;20194;-83
2021/07/19 03:57:36;;;;;;;5.13;3.87;;;15.30;99.90;;;;;;5028085;28;20214;-82
2021/07/19 04:00:05;;;;;;;4.00;3.53;;;15.30;99.90;;;;;;5020628;28;20202;-81
2021/07/19 04:02:37;;;;;;;5.83;4.60;;;15.20;99.90;;;;;;5029296;28;20203;-83
2021/07/19 04:05:06;;;;;;;5.53;4.50;;;15.30;99.90;;;;;;5020922;28;20241;-83
2021/07/19 04:07:37;;;;;;;5.27;4.00;;;15.30;99.90;;;;;;5028673;28;20207;-82
2021/07/19 04:10:06;;;;;;;6.33;4.30;;;15.30;99.90;;;;;;5030089;28;20495;-83
2021/07/19 04:12:33;;;;;;;5.32;4.22;;;15.30;99.90;;;;;;5029085;28;20607;-82
2021/07/19 04:15:01;;;;;;;5.65;4.93;;;15.30;99.90;;;;;;5029492;28;20191;-82
2021/07/19 04:17:28;;;;;;;6.33;4.50;;;15.40;99.90;;;;;;5029045;28;20206;-82
2021/07/19 04:19:58;;;;;;;5.00;4.50;;;15.40;99.90;;;;;;5029063;28;20309;-82
2021/07/19 04:22:27;;;;;;;5.00;3.90;;;15.40;99.90;;;;;;5046009;28;20660;-84
2021/07/19 04:24:54;;;;;;;4.30;3.90;;;15.40;99.90;;;;;;5051416;28;20187;-80
2021/07/19 04:27:21;;;;;;;4.67;3.97;;;15.40;99.90;;;;;;5056721;28;20208;-82
2021/07/19 04:29:52;;;;;;;4.60;4.10;;;15.50;99.90;;;;;;5064121;28;20202;-84
2021/07/19 04:32:20;;;;;;;4.47;3.90;;;15.50;99.90;;;;;;5030152;28;20202;-82
2021/07/19 04:34:47;;;;;;;4.57;4.00;;;15.60;99.90;;;;;;5028667;28;20674;-82
2021/07/19 04:37:16;;;;;;;4.67;4.13;;;15.60;99.90;;;;;;5029603;28;20576;-82
2021/07/19 04:39:43;;;;;;;7.50;4.80;;;15.70;99.90;;;;;;5028631;28;20698;-82
2021/07/19 04:42:10;;;;;;;6.15;4.43;;;15.70;99.90;;;;;;5029435;28;20504;-83
2021/07/19 04:44:38;;;;;;;5.33;4.43;;;15.80;99.90;;;;;;5029076;28;20203;-83
2021/07/19 04:47:07;;;;;;;6.73;4.83;;;15.90;99.90;;;;;;5028042;28;20195;-82
2021/07/19 04:49:34;;;;;;;6.63;5.40;;;15.90;99.90;;;;;;5028167;28;20241;-82
2021/07/19 04:52:01;;;;;;;10.03;5.97;;;16.00;99.90;;;;;;5028778;28;20203;-82
2021/07/19 04:54:37;;;;;;;7.37;6.03;;;16.10;99.90;;;;;;5027991;28;20614;-83
2021/07/19 04:57:06;;;;;;;9.70;5.43;;;16.10;99.90;;;;;;5028578;28;20209;-83
2021/07/19 04:59:38;;;;;;;6.43;4.97;;;16.20;99.90;;;;;;5028618;28;20222;-83
2021/07/19 05:02:12;;;;;;;8.07;5.13;;;16.20;99.90;;;;;;5027919;28;20211;-84
2021/07/19 05:04:40;;;;;;;7.60;5.73;;;16.20;99.90;;;;;;5027422;28;20197;-82
2021/07/19 05:07:08;;;;;;;9.47;4.93;;;16.30;99.90;;;;;;5027112;28;20199;-83
2021/07/19 05:09:40;;;;;;;10.55;6.47;;;16.30;99.90;;;;;;5026892;28;20457;-83
2021/07/19 05:12:10;;;;;;;8.50;5.90;;;16.40;99.90;;;;;;5027984;28;20301;-82
2021/07/19 05:14:38;;;;;;;7.05;5.40;;;16.50;99.90;;;;;;5038822;28;20198;-83
2021/07/19 05:17:09;;;;;;;8.90;5.87;;;16.50;99.90;;;;;;5046965;28;20206;-82
2021/07/19 05:19:37;;;;;;;6.67;5.50;;;16.70;99.90;;;;;;5026571;28;20222;-81
2021/07/19 05:22:08;;;;;;;9.45;6.22;;;16.80;99.90;;;;;;5026924;28;20215;-83
2021/07/19 05:24:34;;;;;;;10.27;6.63;;;16.90;99.90;;;;;;5027051;28;20191;-82
2021/07/19 05:27:03;;;;;;;12.73;5.90;;;17.00;99.90;;;;;;5027346;28;20233;-82
2021/07/19 05:29:30;;;;;;;9.43;5.78;;;17.20;99.90;;;;;;5025990;28;20682;-81
2021/07/19 05:31:57;;;;;;;13.68;6.07;;;17.30;99.90;;;;;;5031427;28;20209;-82
2021/07/19 05:34:23;;;;;;;11.50;5.28;;;17.50;99.90;;;;;;5047047;28;20212;-83
2021/07/19 05:36:50;;;;;;;8.68;5.47;;;17.60;99.90;;;;;;5036832;28;20522;-82
2021/07/19 05:39:17;;;;;;;7.25;5.72;;;17.70;99.90;;;;;;5035488;28;20218;-83
2021/07/19 05:41:44;;;;;;;10.85;6.50;;;17.80;99.90;;;;;;5032243;28;20225;-82
2021/07/19 05:44:13;;;;;;;8.30;5.35;;;17.80;99.90;;;;;;5031852;28;20638;-83
2021/07/19 05:46:40;;;;;;;8.07;5.20;;;17.90;99.90;;;;;;5028797;28;20634;-83
2021/07/19 05:49:07;;;;;;;7.05;4.80;;;18.00;99.90;;;;;;5028473;28;20218;-82
2021/07/19 05:51:33;;;;;;;6.93;5.18;;;18.00;99.90;;;;;;5041450;28;20230;-83
2021/07/19 05:54:01;;;;;;;9.43;5.45;;;18.10;99.90;;;;;;5039509;28;20210;-83
2021/07/19 05:56:28;;;;;;;6.68;5.78;;;18.20;99.90;;;;;;5027159;28;20341;-83
2021/07/19 05:58:54;;;;;;;8.55;6.53;;;18.30;99.90;;;;;;5026724;28;20229;-80
2021/07/19 06:01:23;;;;;;;8.40;5.90;;;18.40;99.90;;;;;;5026694;28;20214;-83
2021/07/19 06:03:49;;;;;;;10.57;6.15;;;18.70;99.90;;;;;;5025856;28;20239;-83
2021/07/19 06:06:16;;;;;;;7.82;5.72;;;18.90;99.90;;;;;;5038562;28;20220;-82
2021/07/19 06:08:43;;;;;;;7.88;5.57;;;19.20;99.90;;;;;;5045443;28;20613;-82
2021/07/19 06:11:10;;;;;;;7.75;5.68;;;19.50;99.90;;;;;;5045231;28;20590;-82
2021/07/19 06:13:37;;;;;;;9.18;4.90;;;19.70;99.90;;;;;;5026884;28;20209;-82
2021/07/19 06:16:04;;;;;;;10.50;4.60;;;20.00;99.90;;;;;;5034458;28;20206;-82
2021/07/19 06:18:32;;;;;;;9.43;5.00;;;20.20;99.90;;;;;;5044301;28;20526;-81
2021/07/19 06:20:59;;;;;;;7.10;4.40;;;20.40;99.90;;;;;;5045315;28;20190;-82
2021/07/19 06:23:26;;;;;;;8.43;4.90;;;20.70;99.90;;;;;;5045848;28;20240;-83
2021/07/19 06:25:53;;;;;;;10.38;4.82;;;20.90;99.90;;;;;;5027660;28;20210;-82
2021/07/19 06:28:20;;;;;;;8.05;3.85;;;21.20;99.90;;;;;;5025853;28;20202;-83
2021/07/19 06:30:47;;;;;;;8.43;4.28;;;21.50;99.90;;;;;;5025112;28;20587;-82
2021/07/19 06:33:14;;;;;;;7.15;4.20;;;21.60;99.90;;;;;;5024898;28;20206;-83
2021/07/19 06:35:42;;;;;;;7.00;4.50;;;21.50;99.90;;;;;;5024252;28;20214;-84
2021/07/19 06:38:09;;;;;;;11.52;4.20;;;21.40;99.90;;;;;;5033654;28;20210;-83
2021/07/19 06:40:36;;;;;;;6.88;3.60;;;21.30;99.90;;;;;;5044893;28;20222;-82
2021/07/19 06:43:03;;;;;;;6.85;3.58;;;21.30;99.90;;;;;;5044821;28;20198;-83
2021/07/19 06:45:30;;;;;;;6.95;4.72;;;21.20;99.90;;;;;;5006246;28;20214;-81
2021/07/19 06:47:57;;;;;;;5.35;4.45;;;21.10;99.90;;;;;;5037834;28;20210;-82
2021/07/19 06:50:24;;;;;;;7.45;3.72;;;21.00;99.90;;;;;;5043737;28;20848;-83
2021/07/19 06:52:52;;;;;;;3.97;3.40;;;20.90;99.90;;;;;;5043510;28;20209;-82
2021/07/19 06:55:20;;;;;;;3.53;3.20;;;20.90;99.90;;;;;;5043042;28;20213;-82
2021/07/19 06:57:47;;;;;;;6.75;3.78;;;20.90;99.90;;;;;;5026006;28;20210;-83
2021/07/19 07:00:14;;;;;;;6.95;3.85;;;20.90;99.90;;;;;;5038519;28;20229;-82
2021/07/19 07:02:41;;;;;;;7.43;4.13;;;20.80;99.90;;;;;;5048391;28;20885;-81
2021/07/19 07:05:09;;;;;;;6.97;3.60;;;20.90;99.90;;;;;;5066154;28;20237;-83
2021/07/19 07:07:36;;;;;;;7.75;4.53;;;20.80;99.90;;;;;;5050544;28;20209;-81
2021/07/19 07:10:06;;;;;;;8.73;4.30;;;20.70;99.90;;;;;;5040202;28;20213;-82
2021/07/19 07:12:33;;;;;;;7.13;3.80;;;20.70;99.90;;;;;;5042832;28;20206;-81
2021/07/19 07:15:00;;;;;;;9.88;4.13;;;20.70;99.90;;;;;;5026089;28;20195;-82
2021/07/19 07:17:27;;;;;;;9.48;4.07;;;20.70;99.90;;;;;;5027592;28;20615;-81
2021/07/19 07:19:55;;;;;;;8.48;4.13;;;20.60;99.90;;;;;;5027465;28;20241;-81
2021/07/19 07:22:22;;;;;;;7.78;4.25;;;20.60;99.90;;;;;;5027841;28;20202;-82
2021/07/19 07:24:49;;;;;;;5.80;3.58;;;20.60;99.90;;;;;;5027457;28;20207;-80
2021/07/19 07:27:19;;;;;;;7.85;3.95;;;20.70;99.90;;;;;;5027156;28;20226;-82
2021/07/19 07:29:47;;;;;;;6.63;4.60;;;20.70;99.90;;;;;;5026716;28;20205;-83
2021/07/19 07:32:14;;;;;;;8.05;4.55;;;20.60;99.90;;;;;;5030240;28;20205;-83
2021/07/19 07:34:41;;;;;;;7.20;4.05;;;20.60;99.90;;;;;;5047177;28;20213;-81
2021/07/19 07:37:12;;;;;;;8.50;4.13;;;20.50;99.90;;;;;;5048178;28;20198;-82
2021/07/19 07:39:39;;;;;;;7.80;4.22;;;20.50;99.90;;;;;;5031435;28;20230;-83
2021/07/19 07:42:06;;;;;;;6.57;4.43;;;20.40;99.90;;;;;;5027734;28;20635;-82
2021/07/19 07:44:34;;;;;;;10.23;4.72;;;20.40;99.90;;;;;;5027485;28;20203;-80
2021/07/19 07:47:01;;;;;;;5.70;3.90;;;20.40;99.90;;;;;;5028701;28;20190;-82
2021/07/19 07:49:29;;;;;;;7.38;4.50;;;20.30;99.90;;;;;;5046130;28;20238;-83
2021/07/19 07:51:58;;;;;;;8.27;4.13;;;20.30;99.90;;;;;;5039971;28;20206;-83
2021/07/19 07:54:25;;;;;;;6.30;4.00;;;20.30;99.90;;;;;;5027011;28;20954;-82
2021/07/19 07:56:51;;;;;;;7.88;4.72;;;20.20;99.90;;;;;;5038593;28;20518;-81
2021/07/19 07:59:18;;;;;;;8.00;4.07;;;20.20;99.90;;;;;;5047516;28;20641;-79
2021/07/19 08:01:46;;;;;;;7.68;4.57;;;20.30;99.90;;;;;;5047764;28;20213;-80
2021/07/19 08:04:28;;;;;;;4.30;3.90;;;20.30;99.90;;;;;;5031597;28;20211;-84
2021/07/19 08:06:54;;;;;;;4.13;3.72;;;20.30;99.90;;;;;;5028989;28;20214;-80
2021/07/19 08:09:21;;;;;;;7.45;4.32;;;20.30;99.90;;;;;;5027576;28;20253;-83
2021/07/19 08:11:48;;;;;;;7.72;4.38;;;20.30;99.90;;;;;;5029073;28;20198;-84
2021/07/19 08:14:15;;;;;;;7.10;4.10;;;20.20;99.90;;;;;;5029047;28;20208;-82
2021/07/19 08:16:42;;;;;;;8.52;4.68;;;20.20;99.90;;;;;;5028402;28;20237;-82
2021/07/19 08:19:11;;;;;;;10.38;4.65;;;20.20;99.90;;;;;;5040799;28;20218;-83
2021/07/19 08:21:40;;;;;;;7.07;4.25;;;20.20;99.90;;;;;;5035923;28;20211;-84
2021/07/19 08:24:07;;;;;;;7.68;4.85;;;20.20;99.90;;;;;;5028313;28;20198;-82
2021/07/19 08:26:34;;;;;;;8.10;5.28;;;20.30;99.90;;;;;;5027916;28;20214;-82
2021/07/19 08:29:01;;;;;;;8.80;4.70;;;20.30;99.90;;;;;;5027794;28;20203;-81
2021/07/19 08:31:29;;;;;;;8.68;5.25;;;20.40;99.90;;;;;;5027126;28;20214;-81
2021/07/19 08:33:57;;;;;;;8.02;5.22;;;20.70;99.90;;;;;;5042365;28;20221;-82
2021/07/19 08:36:29;;;;;;;7.95;5.00;;;21.10;99.90;;;;;;5046744;28;20208;-82
2021/07/19 08:38:55;;;;;;;7.75;5.00;;;21.60;99.90;;;;;;5046380;28;20206;-84
2021/07/19 08:41:22;;;;;;;5.82;4.75;;;22.10;99.90;;;;;;5046099;28;20240;-81
2021/07/19 08:43:49;;;;;;;8.13;5.18;;;22.50;99.90;;;;;;5046720;28;20200;-85
2021/07/19 08:46:17;;;;;;;9.05;4.40;;;22.90;99.90;;;;;;5047351;28;20205;-82
2021/07/19 08:48:45;;;;;;;7.57;4.35;;;23.20;99.90;;;;;;5046957;28;20213;-85
2021/07/19 08:51:13;;;;;;;6.72;4.18;;;23.40;99.90;;;;;;5047840;28;20527;-80
2021/07/19 08:53:42;;;;;;;7.65;5.20;;;23.70;99.90;;;;;;5047736;28;20197;-83
2021/07/19 08:56:09;;;;;;;8.00;4.65;;;23.90;99.90;;;;;;5046718;28;20210;-83
2021/07/19 08:58:37;;;;;;;8.82;4.90;;;23.90;99.90;;;;;;5048265;28;20202;-85
2021/07/19 09:01:05;;;;;;;7.75;4.53;;;24.20;99.90;;;;;;5023073;28;20653;-80
2021/07/19 09:03:32;;;;;;;7.60;4.90;;;24.30;99.90;;;;;;5026294;28;20211;-83
2021/07/19 09:05:59;;;;;;;6.05;4.65;;;24.10;99.90;;;;;;5025807;28;20203;-82
2021/07/19 09:08:25;;;;;;;7.18;4.85;;;24.00;99.90;;;;;;5025827;28;20198;-82
2021/07/19 09:10:54;;;;;;;8.65;4.95;;;23.90;99.90;;;;;;5025138;28;20203;-83
2021/07/19 09:13:22;;;;;;;7.53;5.15;;;23.80;99.90;;;;;;5026115;28;20869;-83
2021/07/19 09:15:52;;;;;;;6.00;4.85;;;23.50;99.90;;;;;;5024826;28;20206;-82
2021/07/19 09:18:24;;;;;;;7.32;5.22;;;23.40;99.90;;;;;;5026234;28;20282;-83
2021/07/19 09:20:51;;;;;;;8.95;5.32;;;23.40;99.90;;;;;;5025738;28;20309;-87
2021/07/19 09:23:27;;;;;;;8.00;5.05;;;23.30;99.90;;;;;;5024675;28;20210;-83
2021/07/19 09:25:57;;;;;;;7.80;5.38;;;23.20;99.90;;;;;;5027208;28;20194;-81
2021/07/19 09:28:29;;;;;;;8.02;4.68;;;23.20;99.90;;;;;;5042998;28;20210;-80
2021/07/19 09:31:06;;;;;;;5.82;4.53;;;23.10;99.90;;;;;;5045612;28;20281;-83
2021/07/19 09:33:35;;;;;;;7.90;4.80;;;23.20;99.90;;;;;;5024783;28;20931;-81
2021/07/19 09:36:03;;;;;;;7.97;4.88;;;23.40;99.90;;;;;;5026671;28;20212;-84
2021/07/19 09:38:31;;;;;;;5.00;4.05;;;23.50;99.90;;;;;;5026495;28;20202;-79
2021/07/19 09:41:01;;;;;;;5.72;4.47;;;23.60;99.90;;;;;;5026569;28;20230;-82
2021/07/19 09:43:31;;;;;;;6.60;4.63;;;23.70;99.90;;;;;;5026735;28;20214;-84
2021/07/19 09:45:59;;;;;;;4.40;3.92;;;23.80;99.90;;;;;;5027004;28;20777;-84
2021/07/19 09:48:26;;;;;;;7.35;5.18;;;23.90;99.90;;;;;;5025932;28;20206;-82
2021/07/19 09:50:53;;;;;;;8.00;4.72;;;23.90;99.90;;;;;;5026572;28;20681;-82
2021/07/19 09:53:32;;;;;;;6.13;4.53;;;24.00;99.90;;;;;;5025946;28;20210;-85
2021/07/19 09:56:12;;;;;;;6.72;4.78;;;24.00;99.90;;;;;;5026017;28;20198;-83
2021/07/19 09:58:39;;;;;;;6.85;4.72;;;24.10;99.90;;;;;;5025793;28;20206;-85
2021/07/19 10:01:06;;;;;;;8.68;5.07;;;24.10;99.90;;;;;;5026392;28;20314;-82
2021/07/19 10:03:33;;;;;;;6.30;4.70;;;24.00;99.90;;;;;;5025877;28;20203;-81
2021/07/19 10:06:07;;;;;;;8.57;5.22;;;24.10;99.90;;;;;;5025920;28;20202;-83
2021/07/19 10:08:34;;;;;;;7.85;4.07;;;24.50;99.90;;;;;;5033142;28;20252;-81
2021/07/19 10:11:01;;;;;;;5.78;4.20;;;24.70;99.90;;;;;;5045877;28;20198;-82
2021/07/19 10:13:36;;;;;;;6.63;4.15;;;24.80;99.90;;;;;;5046251;28;20201;-83
2021/07/19 10:16:03;;;;;;;6.00;4.28;;;24.80;99.90;;;;;;5032012;28;20224;-81
2021/07/19 10:18:33;;;;;;;5.95;4.22;;;24.80;99.90;;;;;;5025075;28;20216;-80
2021/07/19 10:21:00;;;;;;;5.43;3.88;;;24.80;99.90;;;;;;5025994;28;20246;-82
2021/07/19 10:23:27;;;;;;;5.38;3.92;;;24.70;99.90;;;;;;5025613;28;20207;-82
2021/07/19 10:25:54;;;;;;;7.32;4.22;;;24.80;99.90;;;;;;5025577;28;20225;-83
2021/07/19 10:28:21;;;;;;;7.07;4.72;;;24.70;99.90;;;;;;5026886;28;20202;-83
2021/07/19 10:30:50;;;;;;;9.02;4.88;;;24.60;99.90;;;;;;5032662;28;20297;-79
2021/07/19 10:33:17;;;;;;;10.05;5.00;;;24.40;99.90;;;;;;5047485;28;20288;-81
2021/07/19 10:35:45;;;;;;;9.57;5.28;;;24.60;99.90;;;;;;5049636;28;20293;-80
2021/07/19 10:38:18;;;;;;;7.90;4.20;;;24.70;99.90;;;;;;5050952;28;20209;-85
2021/07/19 10:40:46;;;;;;;6.90;4.78;;;24.80;99.90;;;;;;5050938;28;20221;-81
2021/07/19 10:43:16;;;;;;;5.93;4.22;;;24.80;99.90;;;;;;5051795;28;20208;-82
2021/07/19 10:45:46;;;;;;;6.65;4.72;;;24.80;99.90;;;;;;5055207;28;20186;-83
2021/07/19 10:48:25;;;;;;;7.63;4.07;;;25.00;99.90;;;;;;5042284;28;20207;-84
2021/07/19 10:50:52;;;;;;;6.10;4.57;;;25.00;99.90;;;;;;5035163;28;20254;-82
2021/07/19 10:53:24;;;;;;;6.35;4.35;;;25.00;99.90;;;;;;5036720;28;20199;-83
2021/07/19 10:55:59;;;;;;;6.35;4.20;;;24.90;99.90;;;;;;5053393;28;20272;-82
2021/07/19 10:58:37;;;;;;;4.90;4.35;;;25.00;99.90;;;;;;5067643;28;20359;-84
2021/07/19 11:01:05;;;;;;;6.38;5.10;;;25.10;99.90;;;;;;5059429;28;20235;-82
2021/07/19 11:03:40;;;;;;;5.85;4.68;;;25.20;99.90;;;;;;5035623;28;20241;-83
2021/07/19 11:06:07;;;;;;;8.60;4.47;;;25.20;99.90;;;;;;5033318;28;20222;-81
2021/07/19 11:08:34;;;;;;;8.50;5.28;;;25.40;99.90;;;;;;5031644;28;20199;-88
2021/07/19 11:11:01;;;;;;;7.07;4.82;;;25.50;99.90;;;;;;5031816;28;20202;-82
2021/07/19 11:13:31;;;;;;;7.25;5.20;;;25.40;99.90;;;;;;5047299;28;20228;-79
2021/07/19 11:15:58;;;;;;;5.57;4.82;;;25.30;99.90;;;;;;5048383;28;20208;-84
2021/07/19 11:18:29;;;;;;;8.75;5.40;;;25.40;99.90;;;;;;5048758;28;20210;-84
2021/07/19 11:21:00;;;;;;;8.95;5.35;;;25.30;99.90;;;;;;5028618;28;20238;-79
2021/07/19 11:23:29;;;;;;;5.82;4.72;;;25.10;99.90;;;;;;5028662;28;20493;-84
2021/07/19 11:25:58;;;;;;;9.52;5.50;;;25.10;99.90;;;;;;5041471;28;20213;-82
2021/07/19 11:28:29;;;;;;;7.18;4.97;;;25.20;99.90;;;;;;5047922;28;20206;-82
2021/07/19 11:31:08;;;;;;;7.88;5.00;;;25.20;99.90;;;;;;5043980;28;20211;-82
2021/07/19 11:33:36;;;;;;;5.80;4.68;;;25.10;99.90;;;;;;5027861;28;20207;-82
2021/07/19 11:36:20;;;;;;;6.15;4.35;;;25.00;99.90;;;;;;5028886;28;20290;-82
2021/07/19 11:38:48;;;;;;;7.75;4.22;;;25.10;99.90;;;;;;5028757;28;20470;-86
2021/07/19 11:41:17;;;;;;;8.18;5.28;;;25.00;99.90;;;;;;5028244;28;20234;-82
2021/07/19 11:43:45;;;;;;;8.82;5.13;;;25.00;99.90;;;;;;5028766;28;20202;-83
2021/07/19 11:46:12;;;;;;;6.95;5.10;;;24.90;99.90;;;;;;5028266;28;20604;-83
2021/07/19 11:48:43;;;;;;;7.13;5.05;;;24.90;99.90;;;;;;5026669;28;20199;-86
2021/07/19 11:51:12;;;;;;;6.15;4.25;;;24.90;99.90;;;;;;5030124;28;20250;-84
2021/07/19 11:53:43;;;;;;;6.90;4.50;;;25.00;99.90;;;;;;5028556;28;20210;-82
2021/07/19 11:56:10;;;;;;;5.45;4.25;;;24.90;99.90;;;;;;5027718;28;20266;-83
2021/07/19 11:58:41;;;;;;;9.32;4.82;;;24.90;99.90;;;;;;5037362;28;20841;-81
2021/07/19 12:01:09;;;;;;;7.68;5.75;;;24.90;99.90;;;;;;5049464;28;20225;-84
2021/07/19 12:03:35;;;;;;;6.43;5.40;;;25.00;99.90;;;;;;5039439;28;20242;-87
2021/07/19 12:06:02;;;;;;;8.70;6.35;;;25.10;99.90;;;;;;5029187;28;20203;-84
2021/07/19 12:08:33;;;;;;;6.80;5.68;;;25.20;99.90;;;;;;5029935;28;20206;-84
2021/07/19 12:11:02;;;;;;;6.93;6.05;;;25.20;99.90;;;;;;5030188;28;20610;-83
2021/07/19 12:13:34;;;;;;;7.35;6.03;;;25.10;99.90;;;;;;5030483;28;20199;-85
2021/07/19 12:16:01;;;;;;;7.88;6.78;;;25.10;99.90;;;;;;5029307;28;20217;-85
2021/07/19 12:18:31;;;;;;;7.50;5.85;;;25.20;99.90;;;;;;5029439;28;20819;-86
2021/07/19 12:20:59;;;;;;;6.72;5.70;;;25.10;99.90;;;;;;5029598;28;20218;-84
2021/07/19 12:23:39;;;;;;;8.07;5.80;;;25.10;99.90;;;;;;5048679;28;20214;-82
2021/07/19 12:26:06;;;;;;;6.80;5.53;;;25.30;99.90;;;;;;5049334;28;20206;-83
2021/07/19 12:28:33;;;;;;;6.57;5.18;;;25.40;99.90;;;;;;5037555;28;20217;-86
2021/07/19 12:31:14;;;;;;;7.45;5.38;;;25.70;99.90;;;;;;5029005;28;20206;-82
2021/07/19 12:33:42;;;;;;;6.88;5.63;;;25.90;99.90;;;;;;5038173;28;20800;-82
2021/07/19 12:36:09;;;;;;;6.93;5.70;;;26.30;99.90;;;;;;5048728;28;20241;-85
2021/07/19 12:38:37;;;;;;;7.93;5.90;;;26.40;99.90;;;;;;5048178;28;20224;-87
2021/07/19 12:41:10;;;;;;;10.48;6.47;;;26.50;99.90;;;;;;5028704;28;20234;-85
2021/07/19 12:43:37;;;;;;;6.82;6.05;;;26.00;99.90;;;;;;5027856;28;20245;-83
2021/07/19 12:46:03;;;;;;;8.15;6.63;;;25.90;99.90;;;;;;5029373;28;20199;-88
2021/07/19 12:48:31;;;;;;;9.73;6.20;;;26.10;99.90;;;;;;5028416;28;20245;-80
2021/07/19 12:51:01;;;;;;;9.10;5.40;;;26.50;99.90;;;;;;5028273;28;20568;-84
2021/07/19 12:53:35;;;;;;;7.13;5.45;;;26.80;99.90;;;;;;5031459;28;20212;-83